createdAt,value
2019-01-10T00:00:00.797Z,174.70
2019-01-10T00:02:40.317Z,175.20
2019-01-10T00:05:14.097Z,182.63
2019-01-10T00:07:46.137Z,188.23
2019-01-10T00:10:18.613Z,175.33
2019-01-10T00:12:50.538Z,186.53
2019-01-10T00:15:22.730Z,177.37
2019-01-10T00:17:54.918Z,184.63
2019-01-10T00:20:31.433Z,150.10
2019-01-10T00:23:05.077Z,154.93
2019-01-10T00:25:38.736Z,157.77
2019-01-10T00:28:10.678Z,161.50
2019-01-10T00:30:44.539Z,153.07
2019-01-10T00:33:25.165Z,145.27
2019-01-10T00:35:57.197Z,154.73
2019-01-10T00:38:29.184Z,153.90
2019-01-10T00:41:01.057Z,140.17
2019-01-10T00:43:36.052Z,151.37
2019-01-10T00:46:09.601Z,147.83
2019-01-10T00:48:41.701Z,157.30
2019-01-10T00:51:16.799Z,150.10
2019-01-10T00:53:48.790Z,143.50
2019-01-10T00:56:20.764Z,158.50
2019-01-10T00:58:54.132Z,145.33
2019-01-10T01:01:26.061Z,151.67
2019-01-10T01:03:57.953Z,154.73
2019-01-10T01:06:29.838Z,150.00
2019-01-10T01:09:01.804Z,149.37
2019-01-10T01:11:35.224Z,146.63
2019-01-10T01:14:07.322Z,146.27
2019-01-10T01:16:39.218Z,141.53
2019-01-10T01:19:11.177Z,150.50
2019-01-10T01:21:43.077Z,154.50
2019-01-10T01:24:20.219Z,144.33
2019-01-10T01:26:52.142Z,143.17
2019-01-10T01:29:24.256Z,140.17
2019-01-10T01:31:56.678Z,138.90
2019-01-10T01:34:28.657Z,141.23
2019-01-10T01:37:00.501Z,147.77
2019-01-10T01:39:32.456Z,140.00
2019-01-10T01:42:04.371Z,130.43
2019-01-10T01:44:36.296Z,131.90
2019-01-10T01:47:08.178Z,137.37
2019-01-10T01:49:40.050Z,133.83
2019-01-10T01:52:11.904Z,142.50
2019-01-10T01:54:43.794Z,129.47
2019-01-10T01:57:15.644Z,130.50
2019-01-10T01:59:47.929Z,146.33
2019-01-10T02:02:22.507Z,136.53
2019-01-10T02:04:56.213Z,127.30
2019-01-10T02:07:28.249Z,127.80
2019-01-10T02:10:00.432Z,127.03
2019-01-10T02:12:32.343Z,134.13
2019-01-10T02:15:04.815Z,134.03
2019-01-10T02:17:36.718Z,133.77
2019-01-10T02:20:10.817Z,139.77
2019-01-10T02:22:42.825Z,127.90
2019-01-10T02:25:16.577Z,131.73
2019-01-10T02:27:48.465Z,124.40
2019-01-10T02:30:23.087Z,118.83
2019-01-10T02:32:55.098Z,117.07
2019-01-10T02:35:27.155Z,128.70
2019-01-10T02:37:59.036Z,114.20
2019-01-10T02:40:30.961Z,114.63
2019-01-10T02:43:02.881Z,124.77
2019-01-10T02:45:34.756Z,122.63
2019-01-10T02:48:06.654Z,118.30
2019-01-10T02:50:38.500Z,112.43
2019-01-10T02:53:11.699Z,117.17
2019-01-10T02:55:46.820Z,121.97
2019-01-10T02:58:20.488Z,129.97
2019-01-10T03:00:55.231Z,130.93
2019-01-10T03:03:27.251Z,128.57
2019-01-10T03:05:59.395Z,108.97
2019-01-10T03:08:31.345Z,116.50
2019-01-10T03:11:03.197Z,112.80
2019-01-10T03:13:36.998Z,103.00
2019-01-10T03:16:10.251Z,103.30
2019-01-10T03:18:42.147Z,101.37
2019-01-10T03:21:13.988Z,106.40
2019-01-10T03:23:45.870Z,99.30
2019-01-10T03:26:17.745Z,103.30
2019-01-10T03:28:52.746Z,104.47
2019-01-10T03:31:24.637Z,98.67
2019-01-10T03:33:56.735Z,94.57
2019-01-10T03:36:28.618Z,95.33
2019-01-10T03:39:00.484Z,87.90
2019-01-10T03:41:33.440Z,76.07
2019-01-10T03:44:05.664Z,73.57
2019-01-10T03:46:39.751Z,73.10
2019-01-10T03:49:11.644Z,71.30
2019-01-10T03:51:46.492Z,68.53
2019-01-10T03:54:18.406Z,65.90
2019-01-10T03:56:50.493Z,73.70
2019-01-10T03:59:22.336Z,70.70
2019-01-10T04:01:54.236Z,71.30
2019-01-10T04:04:26.112Z,60.63
2019-01-10T04:06:58.044Z,67.53
2019-01-10T04:09:30.392Z,59.73
2019-01-10T04:12:03.426Z,67.07
2019-01-10T04:14:35.583Z,68.50
2019-01-10T04:17:07.526Z,60.40
2019-01-10T04:19:39.775Z,59.80
2019-01-10T04:22:11.700Z,60.97
2019-01-10T04:24:43.538Z,55.97
2019-01-10T04:27:15.398Z,56.50
2019-01-10T04:29:47.240Z,52.50
2019-01-10T04:32:19.225Z,49.43
2019-01-10T04:34:51.223Z,47.43
2019-01-10T04:37:26.325Z,47.70
2019-01-10T04:39:58.188Z,43.87
2019-01-10T04:42:30.100Z,48.53
2019-01-10T04:45:02.017Z,44.50
2019-01-10T04:47:33.892Z,45.13
2019-01-10T04:50:06.624Z,43.67
2019-01-10T04:52:40.130Z,45.60
2019-01-10T04:55:12.403Z,43.07
2019-01-10T04:57:44.330Z,52.27
2019-01-10T05:00:22.315Z,51.57
2019-01-10T05:02:54.630Z,50.37
2019-01-10T05:05:26.492Z,52.47
2019-01-10T05:07:58.421Z,48.33
2019-01-10T05:10:30.271Z,26.83
2019-01-10T05:13:02.159Z,35.23
2019-01-10T05:15:34.036Z,41.33
2019-01-10T05:18:08.090Z,37.10
2019-01-10T05:20:39.872Z,39.13
2019-01-10T05:23:11.742Z,23.97
2019-01-10T05:25:44.234Z,20.53
2019-01-10T05:28:17.913Z,19.80
2019-01-10T05:30:49.854Z,22.07
2019-01-10T05:33:22.788Z,25.60
2019-01-10T05:35:55.097Z,22.67
2019-01-10T05:38:27.194Z,21.03
2019-01-10T05:40:59.487Z,25.40
2019-01-10T05:43:31.965Z,21.63
2019-01-10T05:46:03.844Z,15.07
2019-01-10T05:48:36.896Z,19.35
2019-01-10T05:51:08.752Z,18.77
2019-01-10T05:53:40.676Z,21.13
2019-01-10T05:56:15.553Z,18.37
2019-01-10T05:58:49.085Z,18.53
2019-01-10T06:01:21.061Z,19.33
2019-01-10T06:03:53.742Z,19.47
2019-01-10T06:06:25.873Z,28.57
2019-01-10T06:08:58.944Z,22.10
2019-01-10T06:11:32.701Z,20.77
2019-01-10T06:14:05.113Z,22.67
2019-01-10T06:16:37.024Z,20.77
2019-01-10T06:19:09.270Z,22.70
2019-01-10T06:21:41.237Z,20.83
2019-01-10T06:24:13.146Z,23.87
2019-01-10T06:26:46.478Z,18.57
2019-01-10T06:29:18.734Z,18.03
2019-01-10T06:31:50.607Z,17.57
2019-01-10T06:34:22.549Z,19.17
2019-01-10T06:36:54.604Z,23.40
2019-01-10T06:39:28.268Z,28.17
2019-01-10T06:42:00.190Z,27.83
2019-01-10T06:44:32.593Z,24.23
2019-01-10T06:47:04.519Z,27.53
2019-01-10T06:49:36.494Z,26.73
2019-01-10T06:52:08.695Z,27.20
2019-01-10T06:54:40.630Z,22.83
2019-01-10T06:57:12.505Z,30.90
2019-01-10T06:59:44.461Z,35.53
2019-01-10T07:02:18.006Z,29.93
2019-01-10T07:04:49.896Z,26.60
2019-01-10T07:07:27.176Z,32.63
2019-01-10T07:09:59.041Z,32.93
2019-01-10T07:12:30.939Z,29.53
2019-01-10T07:15:04.159Z,23.57
2019-01-10T07:17:36.039Z,23.20
2019-01-10T07:20:08.182Z,17.50
2019-01-10T07:22:45.058Z,30.00
2019-01-10T07:25:17.913Z,21.13
2019-01-10T07:27:49.881Z,19.00
2019-01-10T07:30:24.896Z,21.87
2019-01-10T07:32:56.766Z,26.53
2019-01-10T07:35:28.711Z,13.60
2019-01-10T07:38:02.324Z,13.10
2019-01-10T07:40:39.265Z,19.77
2019-01-10T07:43:11.192Z,16.07
2019-01-10T07:45:43.034Z,17.63
2019-01-10T07:48:14.909Z,21.17
2019-01-10T07:50:46.718Z,21.37
2019-01-10T07:53:18.662Z,25.30
2019-01-10T07:55:50.758Z,25.40
2019-01-10T07:58:22.676Z,25.67
2019-01-10T08:00:54.557Z,23.70
2019-01-10T08:03:26.400Z,25.67
2019-01-10T08:05:58.395Z,24.73
2019-01-10T08:08:30.282Z,23.77
2019-01-10T08:11:02.164Z,26.77
2019-01-10T08:13:34.311Z,18.00
2019-01-10T08:16:06.523Z,30.83
2019-01-10T08:18:38.406Z,16.33
2019-01-10T08:21:10.583Z,17.70
2019-01-10T08:23:42.486Z,23.90
2019-01-10T08:26:14.398Z,17.47
2019-01-10T08:28:47.910Z,25.40
2019-01-10T08:31:19.807Z,20.50
2019-01-10T08:33:51.731Z,18.43
2019-01-10T08:36:32.165Z,21.73
2019-01-10T08:39:00.259Z,19.43
2019-01-10T08:41:33.690Z,33.23
2019-01-10T08:44:05.992Z,37.87
2019-01-10T08:46:37.866Z,34.93
2019-01-10T08:49:09.853Z,26.33
2019-01-10T08:51:41.713Z,17.03
2019-01-10T08:54:13.619Z,16.23
2019-01-10T08:56:45.494Z,29.10
2019-01-10T08:59:17.348Z,36.87
2019-01-10T09:01:49.299Z,25.53
2019-01-10T09:04:21.230Z,90.13
2019-01-10T09:06:54.098Z,114.37
2019-01-10T09:09:25.969Z,78.53
2019-01-10T09:11:58.456Z,79.53
2019-01-10T09:14:30.601Z,82.57
2019-01-10T09:17:02.540Z,75.10
2019-01-10T09:19:35.963Z,45.63
2019-01-10T09:22:07.829Z,26.82
2019-01-10T09:24:39.731Z,27.27
2019-01-10T09:27:13.230Z,32.27
2019-01-10T09:29:45.110Z,23.77
2019-01-10T09:32:17.110Z,23.90
2019-01-10T09:34:48.964Z,15.75
2019-01-10T09:37:20.878Z,10.48
2019-01-10T09:39:52.749Z,12.35
2019-01-10T09:42:24.724Z,13.55
2019-01-10T09:44:56.649Z,12.25
2019-01-10T09:47:28.936Z,8.90
2019-01-10T09:50:00.833Z,10.60
2019-01-10T09:52:32.689Z,11.73
2019-01-10T09:55:05.190Z,9.30
2019-01-10T09:57:37.163Z,13.22
2019-01-10T10:00:14.362Z,10.75
2019-01-10T10:02:46.351Z,13.72
2019-01-10T10:05:18.339Z,8.88
2019-01-10T10:07:50.389Z,11.15
2019-01-10T10:10:23.000Z,15.78
2019-01-10T10:12:55.035Z,13.13
2019-01-10T10:15:27.087Z,11.70
2019-01-10T10:18:00.198Z,15.45
2019-01-10T10:20:33.724Z,104.83
2019-01-10T10:23:06.088Z,14.53
2019-01-10T10:25:38.031Z,55.38
2019-01-10T10:28:09.916Z,39.60
2019-01-10T10:30:41.812Z,13.83
2019-01-10T10:33:13.715Z,12.60
2019-01-10T10:35:45.693Z,11.60
2019-01-10T10:38:20.415Z,5.12
2019-01-10T10:40:54.208Z,5.85
2019-01-10T10:43:26.763Z,4.05
2019-01-10T10:46:01.764Z,4.78
2019-01-10T10:48:32.952Z,4.22
2019-01-10T10:51:05.953Z,4.80
2019-01-10T10:53:37.805Z,7.08
2019-01-10T10:56:10.429Z,4.30
2019-01-10T10:58:45.744Z,6.67
2019-01-10T11:01:17.639Z,5.53
2019-01-10T11:03:50.488Z,5.33
2019-01-10T11:06:22.506Z,14.83
2019-01-10T11:08:54.376Z,13.32
2019-01-10T11:11:26.214Z,8.65
2019-01-10T11:14:01.110Z,14.93
2019-01-10T11:16:33.011Z,6.83
2019-01-10T11:19:05.089Z,5.92
2019-01-10T11:21:37.093Z,10.13
2019-01-10T11:24:09.398Z,6.15
2019-01-10T11:26:41.320Z,8.35
2019-01-10T11:29:13.228Z,5.42
2019-01-10T11:31:45.075Z,6.37
2019-01-10T11:34:16.937Z,8.33
2019-01-10T11:36:49.218Z,6.45
2019-01-10T11:39:23.055Z,4.60
2019-01-10T11:41:54.944Z,5.70
2019-01-10T11:44:28.645Z,8.35
2019-01-10T11:47:00.517Z,6.80
2019-01-10T11:49:32.366Z,4.37
2019-01-10T11:52:04.329Z,4.70
2019-01-10T11:54:36.212Z,6.50
2019-01-10T11:57:09.719Z,10.35
2019-01-10T11:59:41.784Z,8.55
2019-01-10T12:02:13.653Z,7.33
2019-01-10T12:04:45.530Z,6.90
2019-01-10T12:07:17.463Z,8.88
2019-01-10T12:09:49.333Z,10.43
2019-01-10T12:12:21.248Z,7.92
2019-01-10T12:14:53.099Z,7.47
2019-01-10T12:17:24.981Z,7.83
2019-01-10T12:19:57.438Z,10.38
2019-01-10T12:22:31.878Z,6.72
2019-01-10T12:25:06.231Z,5.85
2019-01-10T12:27:38.124Z,7.67
2019-01-10T12:30:13.527Z,5.62
2019-01-10T12:32:45.511Z,6.90
2019-01-10T12:35:18.437Z,5.97
2019-01-10T12:37:50.307Z,7.72
2019-01-10T12:40:22.415Z,7.42
2019-01-10T12:42:55.611Z,5.40
2019-01-10T12:45:28.696Z,5.55
2019-01-10T12:48:01.677Z,5.70
2019-01-10T12:50:34.413Z,6.28
2019-01-10T12:53:10.078Z,19.45
2019-01-10T12:55:41.952Z,5.20
2019-01-10T12:58:13.895Z,7.00
2019-01-10T13:00:45.795Z,5.05
2019-01-10T13:03:17.712Z,9.88
2019-01-10T13:05:50.338Z,8.60
2019-01-10T13:08:22.261Z,7.33
2019-01-10T13:10:56.865Z,5.25
2019-01-10T13:13:29.129Z,7.83
2019-01-10T13:16:00.943Z,7.22
2019-01-10T13:18:32.829Z,8.85
2019-01-10T13:21:04.701Z,11.22
2019-01-10T13:23:36.560Z,5.90
2019-01-10T13:26:08.418Z,7.08
2019-01-10T13:28:40.276Z,8.35
2019-01-10T13:31:12.182Z,7.92
2019-01-10T13:33:44.034Z,10.78
2019-01-10T13:36:15.907Z,7.65
2019-01-10T13:38:48.957Z,9.18
2019-01-10T13:41:20.849Z,7.30
2019-01-10T13:43:52.916Z,4.45
2019-01-10T13:46:25.901Z,5.60
2019-01-10T13:48:58.477Z,7.85
2019-01-10T13:51:32.829Z,8.38
2019-01-10T13:54:06.895Z,11.90
2019-01-10T13:56:39.723Z,7.45
2019-01-10T14:01:46.015Z,5.97
2019-01-10T14:04:18.893Z,6.95
2019-01-10T14:06:50.841Z,5.83
2019-01-10T14:09:22.710Z,5.87
2019-01-10T14:11:54.538Z,5.45
2019-01-10T14:14:26.417Z,6.20
2019-01-10T14:17:01.656Z,6.10
2019-01-10T14:19:31.889Z,4.78
2019-01-10T14:22:04.139Z,6.85
2019-01-10T14:24:36.018Z,10.72
2019-01-10T14:27:08.045Z,9.98
2019-01-10T14:29:39.947Z,7.22
2019-01-10T14:32:15.361Z,8.28
2019-01-10T14:34:47.217Z,10.50
2019-01-10T14:37:19.086Z,7.90
2019-01-10T14:39:50.981Z,8.58
2019-01-10T14:42:22.820Z,8.48
2019-01-10T14:44:54.717Z,6.90
2019-01-10T14:47:28.248Z,12.85
2019-01-10T14:50:01.228Z,10.08
2019-01-10T14:52:33.196Z,9.00
2019-01-10T14:55:06.652Z,7.05
2019-01-10T14:57:38.641Z,6.08
2019-01-10T15:00:17.790Z,9.30
2019-01-10T15:02:52.162Z,8.28
2019-01-10T15:05:24.142Z,10.30
2019-01-10T15:07:57.507Z,16.32
2019-01-10T15:10:29.807Z,10.53
2019-01-10T15:13:02.252Z,9.70
2019-01-10T15:15:34.119Z,9.48
2019-01-10T15:18:06.158Z,6.53
2019-01-10T15:20:39.242Z,12.63
2019-01-10T15:23:11.067Z,7.62
2019-01-10T15:25:42.977Z,11.80
2019-01-10T15:28:14.825Z,6.95
2019-01-10T15:30:46.709Z,6.33
2019-01-10T15:33:20.646Z,9.33
2019-01-10T15:35:54.340Z,5.90
2019-01-10T15:38:26.690Z,7.58
2019-01-10T15:40:59.786Z,7.25
2019-01-10T15:43:31.705Z,5.47
2019-01-10T15:46:03.578Z,5.80
2019-01-10T15:48:35.870Z,7.25
2019-01-10T15:51:07.784Z,8.38
2019-01-10T15:53:41.041Z,9.10
2019-01-10T15:56:12.919Z,7.40
2019-01-10T15:58:44.877Z,6.70
2019-01-10T16:01:16.836Z,7.22
2019-01-10T16:03:48.704Z,8.48
2019-01-10T16:06:22.249Z,6.33
2019-01-10T16:08:54.282Z,11.05
2019-01-10T16:11:26.294Z,9.43
2019-01-10T16:13:58.159Z,6.97
2019-01-10T16:16:30.138Z,8.78
2019-01-10T16:19:02.223Z,10.55
2019-01-10T16:21:35.916Z,63.25
2019-01-10T16:24:07.890Z,55.28
2019-01-10T16:26:40.358Z,39.35
2019-01-10T16:29:12.235Z,44.55
2019-01-10T16:31:44.786Z,72.55
2019-01-10T16:34:16.723Z,39.15
2019-01-10T16:36:48.580Z,16.37
2019-01-10T16:39:20.451Z,12.45
2019-01-10T16:41:57.427Z,16.25
2019-01-10T16:44:29.257Z,62.00
2019-01-10T16:47:01.225Z,40.03
2019-01-10T16:49:36.288Z,30.35
2019-01-10T16:52:08.274Z,35.88
2019-01-10T16:54:42.149Z,28.80
2019-01-10T16:57:14.026Z,32.00
2019-01-10T16:59:45.879Z,17.57
2019-01-10T17:02:17.819Z,54.23
2019-01-10T17:04:52.785Z,23.65
2019-01-10T17:07:24.699Z,31.02
2019-01-10T17:09:56.530Z,13.00
2019-01-10T17:12:28.592Z,14.93
2019-01-10T17:15:00.483Z,13.88
2019-01-10T17:17:37.568Z,13.70
2019-01-10T17:20:08.144Z,10.90
2019-01-10T17:22:40.526Z,13.03
2019-01-10T17:25:12.481Z,13.38
2019-01-10T17:27:44.529Z,17.87
2019-01-10T17:30:20.691Z,17.23
2019-01-10T17:32:52.792Z,14.23
2019-01-10T17:35:26.951Z,20.00
2019-01-10T17:38:02.506Z,10.82
2019-01-10T17:40:34.626Z,9.98
2019-01-10T17:43:07.243Z,6.65
2019-01-10T17:45:39.962Z,8.68
2019-01-10T17:48:13.070Z,8.33
2019-01-10T17:50:45.059Z,9.55
2019-01-10T17:53:20.222Z,10.08
2019-01-10T17:55:53.379Z,11.88
2019-01-10T17:58:25.271Z,54.70
2019-01-10T18:00:57.171Z,72.53
2019-01-10T18:03:29.362Z,67.82
2019-01-10T18:06:01.239Z,44.63
2019-01-10T18:08:34.321Z,35.73
2019-01-10T18:11:06.561Z,26.48
2019-01-10T18:13:38.443Z,22.82
2019-01-10T18:16:10.314Z,23.07
2019-01-10T18:18:47.560Z,19.52
2019-01-10T18:21:21.130Z,22.52
2019-01-10T18:23:53.023Z,37.23
2019-01-10T18:26:24.917Z,41.50
2019-01-10T18:28:56.805Z,41.55
2019-01-10T18:31:29.112Z,39.42
2019-01-10T18:34:00.998Z,41.63
2019-01-10T18:36:33.006Z,48.25
2019-01-10T18:39:08.421Z,53.28
2019-01-10T18:41:40.300Z,63.95
2019-01-10T18:44:12.596Z,77.35
2019-01-10T18:46:44.983Z,62.00
2019-01-10T18:49:16.883Z,54.98
2019-01-10T18:51:49.157Z,55.23
2019-01-10T18:54:20.979Z,51.60
2019-01-10T18:56:53.151Z,53.33
2019-01-10T18:59:27.250Z,53.30
2019-01-10T19:01:59.158Z,56.70
2019-01-10T19:04:33.613Z,57.60
2019-01-10T19:07:05.502Z,73.87
2019-01-10T19:09:37.372Z,71.10
2019-01-10T19:12:10.849Z,72.72
2019-01-10T19:14:42.727Z,57.55
2019-01-10T19:17:14.592Z,64.82
2019-01-10T19:19:46.470Z,93.82
2019-01-10T19:22:18.502Z,86.78
2019-01-10T19:24:50.372Z,99.83
2019-01-10T19:27:22.361Z,67.08
2019-01-10T19:29:54.217Z,61.68
2019-01-10T19:32:26.726Z,53.52
2019-01-10T19:34:58.599Z,61.53
2019-01-10T19:37:30.655Z,80.77
2019-01-10T19:40:03.607Z,65.83
2019-01-10T19:42:35.529Z,51.00
2019-01-10T19:45:08.451Z,53.83
2019-01-10T19:47:41.370Z,198.75
2019-01-10T19:50:16.267Z,326.07
2019-01-10T19:52:50.211Z,481.73
2019-01-10T19:55:22.731Z,113.15
2019-01-10T19:57:54.932Z,95.55
2019-01-10T20:00:48.123Z,52.20
2019-01-10T20:03:21.587Z,44.40
2019-01-10T20:05:53.563Z,40.52
2019-01-10T20:08:25.540Z,28.52
2019-01-10T20:10:59.219Z,37.10
2019-01-10T20:13:31.109Z,40.70
2019-01-10T20:16:04.973Z,48.48
2019-01-10T20:18:37.821Z,42.10
2019-01-10T20:21:10.401Z,47.80
2019-01-10T20:23:42.282Z,47.45
2019-01-10T20:26:15.789Z,44.75
2019-01-10T20:28:49.197Z,61.05
2019-01-10T20:31:21.135Z,63.80
2019-01-10T20:33:53.008Z,46.37
2019-01-10T20:36:24.885Z,46.18
2019-01-10T20:38:56.783Z,47.50
2019-01-10T20:41:28.673Z,50.03
2019-01-10T20:44:00.568Z,47.78
2019-01-10T20:46:32.400Z,68.42
2019-01-10T20:49:05.940Z,87.47
2019-01-10T20:51:39.635Z,68.20
2019-01-10T20:54:16.703Z,47.85
2019-01-10T20:56:48.536Z,54.15
2019-01-10T20:59:20.423Z,59.27
2019-01-10T21:01:52.300Z,239.63
2019-01-10T21:04:24.273Z,589.58
2019-01-10T21:06:56.171Z,513.63
2019-01-10T21:09:28.031Z,157.72
2019-01-10T21:11:59.911Z,153.60
2019-01-10T21:14:31.807Z,115.45
2019-01-10T21:17:04.301Z,75.37
2019-01-10T21:19:36.149Z,62.78
2019-01-10T21:22:08.084Z,69.12
2019-01-10T21:24:40.996Z,54.03
2019-01-10T21:27:12.932Z,64.50
2019-01-10T21:29:44.821Z,83.50
2019-01-10T21:32:16.659Z,66.90
2019-01-10T21:34:48.550Z,55.37
2019-01-10T21:37:20.662Z,65.33
2019-01-10T21:39:52.612Z,57.03
2019-01-10T21:42:24.523Z,54.33
2019-01-10T21:44:56.381Z,58.80
2019-01-10T21:47:28.403Z,51.75
2019-01-10T21:50:00.367Z,51.77
2019-01-10T21:52:32.244Z,57.90
2019-01-10T21:55:04.631Z,58.08
2019-01-10T21:57:36.543Z,68.62
2019-01-10T22:00:15.842Z,56.33
2019-01-10T22:02:47.820Z,50.80
2019-01-10T22:05:19.909Z,57.17
2019-01-10T22:07:52.019Z,57.62
2019-01-10T22:10:23.946Z,49.67
2019-01-10T22:12:55.917Z,53.67
2019-01-10T22:15:27.822Z,56.13
2019-01-10T22:17:59.703Z,60.50
2019-01-10T22:20:33.474Z,51.37
2019-01-10T22:23:06.795Z,51.57
2019-01-10T22:25:38.838Z,45.87
2019-01-10T22:28:10.845Z,48.70
2019-01-10T22:30:42.779Z,46.93
2019-01-10T22:33:14.699Z,50.73
2019-01-10T22:35:46.601Z,87.13
2019-01-10T22:38:18.585Z,43.63
2019-01-10T22:40:50.612Z,36.80
2019-01-10T22:43:22.431Z,34.27
2019-01-10T22:45:56.959Z,41.00
2019-01-10T22:48:28.973Z,32.10
2019-01-10T22:51:01.128Z,29.83
2019-01-10T22:53:32.968Z,32.57
2019-01-10T22:56:04.966Z,29.05
2019-01-10T22:58:36.902Z,30.43
2019-01-10T23:01:30.221Z,22.40
2019-01-10T23:04:02.513Z,28.57
2019-01-10T23:06:34.397Z,31.20
2019-01-10T23:09:10.046Z,28.70
2019-01-10T23:11:41.984Z,20.67
2019-01-10T23:14:14.480Z,30.77
2019-01-10T23:16:46.322Z,25.67
2019-01-10T23:19:18.330Z,29.18
2019-01-10T23:21:50.197Z,24.20
2019-01-10T23:24:26.771Z,11.93
2019-01-10T23:26:56.349Z,12.80
2019-01-10T23:29:37.230Z,9.60
2019-01-10T23:32:11.748Z,3.83
2019-01-10T23:34:50.600Z,5.30
2019-01-10T23:37:26.840Z,6.27
2019-01-10T23:39:59.119Z,3.17
2019-01-10T23:42:32.383Z,7.50
2019-01-10T23:45:05.066Z,6.30
2019-01-10T23:47:40.815Z,4.30
2019-01-10T23:50:14.678Z,6.55
2019-01-10T23:52:47.976Z,3.10
2019-01-10T23:55:19.902Z,7.90
2019-01-10T23:57:52.326Z,3.50
